Time;durP1;ratioP1;P1;durP2;ratioP2;P2;SDS_P1;SDS_P2;PMS_P1;PMS_P2;Temp;Humidity;BMP_temperature;BMP_pressure;BME280_temperature;BME280_humidity;BME280_pressure;Samples;Min_cycle;Max_cycle;Signal;HPM_P1;HPM_P2
2021/03/29 00:33:06;;;;;;;7.55;3.20;;;8.20;43.90;;;;;;5919626;23;20197;-79
2021/03/29 00:35:34;;;;;;;5.03;2.60;;;8.20;43.80;;;;;;4956593;29;20287;-79
2021/03/29 00:38:02;;;;;;;5.07;2.83;;;8.20;43.90;;;;;;4953879;29;20232;-81
2021/03/29 00:40:29;;;;;;;4.53;3.05;;;8.20;43.80;;;;;;4952065;29;20214;-83
2021/03/29 00:42:59;;;;;;;6.85;2.90;;;8.10;43.90;;;;;;4952666;29;20230;-81
2021/03/29 00:45:27;;;;;;;8.65;3.20;;;8.10;44.10;;;;;;4963092;23;20215;-88
2021/03/29 00:47:55;;;;;;;5.40;2.70;;;8.10;44.10;;;;;;4953550;29;20218;-89
2021/03/29 00:50:29;;;;;;;7.75;2.95;;;8.10;43.90;;;;;;4952592;29;20218;-89
2021/03/29 00:52:57;;;;;;;5.05;2.60;;;8.00;44.10;;;;;;4958307;29;20224;-89
2021/03/29 00:55:25;;;;;;;3.72;2.65;;;7.90;44.40;;;;;;4962917;28;20275;-91
2021/03/29 00:57:53;;;;;;;5.78;3.08;;;7.90;44.60;;;;;;4962189;29;20301;-90
2021/03/29 01:00:25;;;;;;;6.75;2.70;;;7.90;45.10;;;;;;4963014;29;20217;-89
2021/03/29 01:02:53;;;;;;;4.60;2.95;;;7.80;45.30;;;;;;4962467;29;20238;-88
2021/03/29 01:05:23;;;;;;;6.15;2.72;;;7.80;45.50;;;;;;4965298;28;20301;-91
2021/03/29 01:07:52;;;;;;;4.95;3.45;;;7.80;45.70;;;;;;4965784;28;20207;-91
2021/03/29 01:10:20;;;;;;;3.30;2.80;;;7.80;45.60;;;;;;4965938;28;20250;-93
2021/03/29 01:12:48;;;;;;;5.25;2.70;;;7.90;45.60;;;;;;4959048;28;20253;-88
2021/03/29 01:15:18;;;;;;;4.30;2.90;;;7.80;45.90;;;;;;4955277;28;20221;-93
2021/03/29 01:17:49;;;;;;;6.32;3.22;;;7.70;46.00;;;;;;4965043;28;20195;-93
2021/03/29 01:20:33;;;;;;;7.40;3.50;;;7.70;46.20;;;;;;4956009;28;20201;-89
2021/03/29 01:23:02;;;;;;;3.20;2.90;;;7.70;46.30;;;;;;4960544;28;20301;-92
2021/03/29 01:25:35;;;;;;;6.13;3.30;;;7.70;46.20;;;;;;4962081;28;20214;-90
2021/03/29 01:28:08;;;;;;;6.60;2.78;;;7.70;46.50;;;;;;4957339;29;20222;-87
2021/03/29 01:30:37;;;;;;;3.30;2.53;;;7.70;46.30;;;;;;4952706;29;20211;-87
2021/03/29 01:33:06;;;;;;;5.00;2.90;;;7.60;46.50;;;;;;4951287;29;20292;-90
2021/03/29 01:35:35;;;;;;;7.07;2.25;;;7.60;46.60;;;;;;4959907;28;20227;-89
2021/03/29 01:38:03;;;;;;;3.35;2.67;;;7.50;46.90;;;;;;4960256;28;20261;-91
2021/03/29 01:40:30;;;;;;;3.92;2.63;;;7.50;46.90;;;;;;4960458;28;20195;-89
2021/03/29 01:42:58;;;;;;;5.03;2.92;;;7.50;47.40;;;;;;4961118;28;20222;-88
2021/03/29 01:45:27;;;;;;;3.03;2.72;;;7.40;47.60;;;;;;4950687;29;20230;-89
2021/03/29 01:47:54;;;;;;;5.32;3.05;;;7.40;47.90;;;;;;4951729;29;20222;-88
2021/03/29 01:50:28;;;;;;;8.52;3.15;;;7.30;47.90;;;;;;4945996;29;20686;-89
2021/03/29 01:52:56;;;;;;;4.00;2.35;;;7.40;48.00;;;;;;4946249;29;20655;-89
2021/03/29 01:55:23;;;;;;;5.00;2.92;;;7.30;47.90;;;;;;4955796;29;20303;-89
2021/03/29 01:57:50;;;;;;;2.80;2.40;;;7.30;47.90;;;;;;4950887;29;20207;-89
2021/03/29 02:00:22;;;;;;;9.07;3.47;;;7.30;47.90;;;;;;4952395;29;20225;-91
2021/03/29 02:02:51;;;;;;;3.88;2.70;;;7.20;47.80;;;;;;4961051;28;20202;-92
2021/03/29 02:05:19;;;;;;;3.13;2.35;;;7.40;47.90;;;;;;4961210;28;20224;-89
2021/03/29 02:07:47;;;;;;;8.73;3.22;;;7.40;48.00;;;;;;4961068;28;20240;-92
2021/03/29 02:10:17;;;;;;;5.57;3.35;;;7.40;48.00;;;;;;4961874;28;20214;-92
2021/03/29 02:12:45;;;;;;;5.47;3.13;;;7.40;47.90;;;;;;4961877;28;20195;-91
2021/03/29 02:15:14;;;;;;;8.68;2.90;;;7.40;47.90;;;;;;4957150;29;20211;-88
2021/03/29 02:17:42;;;;;;;11.35;4.40;;;7.40;47.90;;;;;;4952852;29;20237;-91
2021/03/29 02:20:14;;;;;;;5.75;2.83;;;7.60;47.30;;;;;;4957470;29;20214;-89
2021/03/29 02:22:43;;;;;;;5.45;2.95;;;7.60;46.70;;;;;;4958519;28;20210;-92
2021/03/29 02:25:12;;;;;;;5.03;3.03;;;7.70;46.40;;;;;;4959764;28;20236;-92
2021/03/29 02:27:39;;;;;;;5.38;3.17;;;7.70;46.20;;;;;;4957870;28;20206;-90
2021/03/29 02:30:09;;;;;;;4.13;3.28;;;7.70;46.00;;;;;;4960511;28;20191;-93
2021/03/29 02:32:39;;;;;;;6.30;3.00;;;7.80;45.60;;;;;;4961362;28;20234;-90
2021/03/29 02:35:08;;;;;;;4.15;2.70;;;7.80;45.60;;;;;;4961336;28;20221;-95
2021/03/29 02:37:35;;;;;;;4.95;2.88;;;7.90;46.10;;;;;;4961540;28;20229;-91
2021/03/29 02:40:05;;;;;;;4.40;2.85;;;7.90;45.20;;;;;;4961374;28;20223;-92
2021/03/29 02:42:33;;;;;;;6.00;3.03;;;7.90;45.10;;;;;;4961283;28;20219;-94
2021/03/29 02:45:00;;;;;;;5.65;3.00;;;7.90;44.80;;;;;;4961095;28;20231;-91
2021/03/29 02:47:27;;;;;;;2.95;2.42;;;7.90;44.90;;;;;;4960974;28;20219;-92
2021/03/29 02:49:57;;;;;;;5.70;3.03;;;8.00;44.70;;;;;;4961010;28;20206;-91
2021/03/29 02:52:24;;;;;;;4.00;2.72;;;8.00;44.70;;;;;;4959294;28;20274;-91
2021/03/29 02:54:53;;;;;;;3.80;2.53;;;7.90;44.70;;;;;;4960284;28;20257;-92
2021/03/29 02:57:20;;;;;;;5.70;3.00;;;7.80;45.10;;;;;;4960737;28;20290;-93
2021/03/29 02:59:47;;;;;;;6.50;3.35;;;7.70;45.30;;;;;;4960672;28;20210;-91
2021/03/29 03:02:15;;;;;;;6.60;3.10;;;7.70;45.60;;;;;;4960848;28;20206;-94
2021/03/29 03:04:42;;;;;;;7.45;3.92;;;7.70;46.00;;;;;;4960678;28;20190;-92
2021/03/29 03:07:09;;;;;;;7.38;3.55;;;7.60;46.00;;;;;;4959163;28;20234;-89
2021/03/29 03:09:37;;;;;;;10.18;3.60;;;7.60;46.20;;;;;;4959047;28;20201;-93
2021/03/29 03:12:06;;;;;;;3.17;2.28;;;7.60;46.10;;;;;;4960639;28;20258;-91
2021/03/29 03:14:32;;;;;;;3.33;2.83;;;7.50;46.20;;;;;;4960434;28;20179;-90
2021/03/29 03:16:59;;;;;;;4.50;3.15;;;7.50;46.60;;;;;;4959270;28;20272;-89
2021/03/29 03:19:26;;;;;;;5.55;2.50;;;7.40;46.70;;;;;;4958974;28;20214;-88
2021/03/29 03:21:53;;;;;;;5.07;3.10;;;7.50;47.00;;;;;;4958452;28;20205;-93
2021/03/29 03:24:20;;;;;;;8.68;3.30;;;7.50;46.90;;;;;;4959962;28;20253;-91
2021/03/29 03:26:47;;;;;;;3.28;2.78;;;7.50;46.60;;;;;;4960169;28;20271;-91
2021/03/29 03:29:15;;;;;;;4.30;2.90;;;7.50;46.40;;;;;;4960526;28;20202;-91
2021/03/29 03:31:42;;;;;;;5.80;2.95;;;7.40;46.60;;;;;;4960305;28;20183;-90
2021/03/29 03:34:09;;;;;;;4.00;2.75;;;7.40;47.00;;;;;;4951299;28;20217;-90
2021/03/29 03:36:39;;;;;;;4.15;3.53;;;7.40;47.00;;;;;;4942919;29;20278;-89
2021/03/29 03:39:07;;;;;;;4.65;3.50;;;7.40;47.00;;;;;;4942416;29;20666;-89
2021/03/29 03:41:36;;;;;;;5.35;3.08;;;7.40;47.20;;;;;;4940595;29;20674;-88
2021/03/29 03:44:04;;;;;;;3.55;2.90;;;7.30;47.30;;;;;;4945870;29;20210;-88
2021/03/29 03:46:37;;;;;;;5.63;3.03;;;7.30;46.90;;;;;;4944821;29;20238;-88
2021/03/29 03:49:06;;;;;;;5.07;3.03;;;7.40;47.00;;;;;;4942346;29;20203;-90
2021/03/29 03:51:34;;;;;;;8.60;3.17;;;7.30;46.80;;;;;;4941955;29;20214;-89
2021/03/29 03:54:01;;;;;;;8.07;3.42;;;7.20;47.10;;;;;;4942347;29;20225;-89
2021/03/29 03:56:32;;;;;;;6.60;2.95;;;7.30;47.50;;;;;;4950216;29;20234;-89
2021/03/29 03:58:59;;;;;;;5.60;3.15;;;7.20;47.80;;;;;;4950362;29;20203;-89
2021/03/29 04:01:27;;;;;;;3.97;2.80;;;7.20;47.80;;;;;;4948333;29;20222;-88
2021/03/29 04:03:58;;;;;;;5.93;3.00;;;7.10;47.70;;;;;;4945573;29;20210;-90
2021/03/29 04:06:24;;;;;;;4.25;3.10;;;7.20;47.80;;;;;;4953854;29;20238;-87
2021/03/29 04:08:51;;;;;;;3.85;2.60;;;7.10;47.70;;;;;;4951242;29;20225;-87
2021/03/29 04:11:23;;;;;;;4.03;3.03;;;7.10;47.70;;;;;;4955058;29;20250;-87
2021/03/29 04:13:49;;;;;;;5.35;2.97;;;7.10;47.70;;;;;;4958627;28;20222;-93
2021/03/29 04:16:16;;;;;;;5.03;2.97;;;7.00;47.60;;;;;;4958433;28;20329;-88
2021/03/29 04:18:43;;;;;;;4.95;2.90;;;7.00;48.20;;;;;;4953933;28;20214;-93
2021/03/29 04:21:14;;;;;;;7.28;3.50;;;6.90;48.70;;;;;;4960017;28;20246;-91
2021/03/29 04:23:42;;;;;;;14.45;3.83;;;6.90;49.30;;;;;;4959644;28;20222;-91
2021/03/29 05:33:35;;;;;;;7.97;4.38;;;5.80;58.00;;;;;;5180082;23;20259;-79
2021/03/29 05:36:02;;;;;;;6.00;3.22;;;5.90;58.40;;;;;;4961024;28;20209;-79
2021/03/29 05:38:28;;;;;;;4.85;3.75;;;5.90;58.40;;;;;;4949003;29;20242;-82
2021/03/29 05:40:54;;;;;;;6.40;3.80;;;6.00;58.20;;;;;;4944120;29;20214;-82
2021/03/29 05:43:21;;;;;;;7.93;3.75;;;6.00;57.50;;;;;;4943853;29;20265;-82
2021/03/29 05:45:51;;;;;;;6.72;3.58;;;6.10;56.80;;;;;;4945023;29;20773;-81
2021/03/29 05:48:17;;;;;;;7.95;3.85;;;6.20;56.40;;;;;;4967249;23;20643;-83
2021/03/29 05:50:45;;;;;;;6.78;3.95;;;6.30;56.50;;;;;;4953946;29;20253;-83
2021/03/29 05:53:11;;;;;;;6.00;4.55;;;6.30;56.50;;;;;;4956814;28;20198;-84
2021/03/29 05:55:39;;;;;;;7.00;3.58;;;6.40;56.60;;;;;;4959150;28;20242;-82
2021/03/29 05:58:29;;;;;;;11.27;4.43;;;6.50;56.60;;;;;;4959595;28;20218;-83
2021/03/29 06:00:56;;;;;;;6.43;3.80;;;6.60;56.70;;;;;;4959985;28;20250;-84
2021/03/29 06:03:25;;;;;;;6.43;3.80;;;6.70;56.30;;;;;;4952837;28;20262;-83
2021/03/29 06:05:54;;;;;;;7.15;4.38;;;6.80;55.50;;;;;;4946938;29;20234;-82
2021/03/29 06:08:21;;;;;;;9.45;4.80;;;7.00;54.70;;;;;;4950289;29;20266;-83
2021/03/29 06:10:53;;;;;;;5.05;3.45;;;7.10;53.70;;;;;;4951611;29;20215;-83
2021/03/29 06:13:22;;;;;;;5.22;3.72;;;7.30;53.20;;;;;;4950866;29;20246;-83
2021/03/29 06:15:59;;;;;;;6.70;3.60;;;7.40;52.70;;;;;;4956166;29;20214;-83
2021/03/29 06:18:25;;;;;;;11.98;4.63;;;7.40;52.40;;;;;;4958316;28;20231;-83
2021/03/29 06:21:00;;;;;;;9.93;3.72;;;7.40;52.20;;;;;;4955859;29;20214;-83
2021/03/29 06:23:27;;;;;;;8.10;4.43;;;7.40;52.00;;;;;;4946766;29;20210;-83
2021/03/29 06:26:16;;;;;;;9.52;4.65;;;7.50;51.70;;;;;;4953651;29;20255;-83
2021/03/29 06:28:43;;;;;;;11.52;5.00;;;7.40;51.10;;;;;;4957273;28;20227;-81
2021/03/29 06:31:26;;;;;;;8.38;4.70;;;7.40;50.90;;;;;;4957816;28;20203;-83
2021/03/29 06:33:54;;;;;;;6.63;3.92;;;7.40;50.90;;;;;;4954134;29;20226;-82
2021/03/29 06:36:30;;;;;;;6.15;4.18;;;7.40;50.70;;;;;;4941560;29;20293;-83
2021/03/29 06:39:09;;;;;;;12.43;4.70;;;7.50;50.90;;;;;;4945665;29;20311;-83
2021/03/29 06:41:36;;;;;;;8.23;4.78;;;7.50;50.60;;;;;;4948606;29;20213;-83
2021/03/29 06:44:03;;;;;;;7.22;3.90;;;7.50;49.70;;;;;;4945853;29;20278;-83
2021/03/29 06:46:30;;;;;;;5.70;3.83;;;7.50;48.80;;;;;;4945162;29;20231;-82
2021/03/29 06:48:58;;;;;;;10.50;3.63;;;7.50;48.10;;;;;;4950470;29;20234;-82
2021/03/29 06:51:29;;;;;;;8.95;3.40;;;7.60;48.10;;;;;;4952263;29;20221;-83
2021/03/29 06:53:58;;;;;;;5.20;3.42;;;7.70;48.20;;;;;;4941955;29;20218;-83
2021/03/29 06:56:30;;;;;;;5.97;3.40;;;7.80;47.40;;;;;;4943089;29;20217;-82
2021/03/29 06:58:57;;;;;;;6.32;2.97;;;7.90;46.20;;;;;;4942334;29;20207;-82
2021/03/29 07:01:26;;;;;;;4.25;2.70;;;8.00;45.50;;;;;;4948235;29;20211;-83
2021/03/29 07:03:54;;;;;;;7.47;3.50;;;8.20;45.00;;;;;;4943954;29;20239;-83
2021/03/29 07:06:23;;;;;;;8.20;3.22;;;8.40;44.00;;;;;;4945482;29;20257;-83
2021/03/29 07:08:51;;;;;;;6.03;3.05;;;8.60;43.40;;;;;;4944258;29;20301;-82
2021/03/29 07:11:19;;;;;;;5.97;3.28;;;8.70;42.60;;;;;;4948610;29;20221;-83
2021/03/29 07:13:46;;;;;;;5.50;3.00;;;8.90;42.20;;;;;;4953014;28;20198;-83
2021/03/29 07:16:13;;;;;;;5.75;2.92;;;9.00;41.50;;;;;;4957818;28;20266;-83
2021/03/29 07:18:41;;;;;;;4.10;3.20;;;9.20;41.50;;;;;;4954985;28;20235;-82
2021/03/29 07:21:10;;;;;;;3.15;2.63;;;9.20;41.40;;;;;;4946041;29;20214;-83
2021/03/29 07:23:38;;;;;;;6.45;3.10;;;9.20;40.80;;;;;;4947997;29;20289;-83
2021/03/29 07:26:24;;;;;;;5.32;3.30;;;9.20;41.20;;;;;;4949917;29;20247;-82
2021/03/29 07:28:51;;;;;;;4.13;2.65;;;9.40;40.20;;;;;;4949195;29;20210;-82
2021/03/29 07:31:38;;;;;;;7.00;4.13;;;9.50;40.10;;;;;;4950475;29;20217;-83
2021/03/29 07:34:05;;;;;;;6.22;3.30;;;9.70;40.20;;;;;;4946441;29;20210;-83
2021/03/29 07:36:42;;;;;;;4.32;3.28;;;9.80;40.30;;;;;;4949228;29;20242;-83
2021/03/29 07:39:09;;;;;;;3.97;3.50;;;10.10;38.30;;;;;;4955531;29;20226;-83
2021/03/29 07:41:37;;;;;;;11.25;3.47;;;10.20;37.50;;;;;;4956845;28;20194;-82
2021/03/29 07:44:12;;;;;;;5.43;2.90;;;10.40;37.10;;;;;;4957438;28;20416;-83
2021/03/29 07:46:39;;;;;;;5.03;3.00;;;10.60;36.50;;;;;;4957133;28;20439;-83
2021/03/29 07:49:46;;;;;;;2.95;2.58;;;10.70;36.20;;;;;;4957023;29;20202;-83
2021/03/29 07:52:26;;;;;;;3.50;2.65;;;10.90;35.50;;;;;;4956672;28;20178;-83
2021/03/29 07:54:53;;;;;;;3.13;2.15;;;11.00;34.70;;;;;;4957612;29;20182;-83
2021/03/29 07:57:52;;;;;;;4.63;2.92;;;11.10;34.60;;;;;;4956995;28;20230;-83
2021/03/29 08:00:41;;;;;;;4.70;2.55;;;11.30;34.40;;;;;;4947641;29;20304;-83
2021/03/29 08:03:37;;;;;;;5.88;2.72;;;11.40;34.30;;;;;;4951051;29;20274;-83
2021/03/29 08:06:04;;;;;;;5.40;3.00;;;11.60;33.60;;;;;;4945432;29;20313;-82
2021/03/29 08:08:41;;;;;;;4.57;2.33;;;11.60;34.40;;;;;;4943700;29;20233;-82
2021/03/29 08:11:11;;;;;;;6.25;3.17;;;11.80;33.50;;;;;;4944999;29;20727;-83
2021/03/29 08:13:39;;;;;;;3.10;2.58;;;11.90;33.60;;;;;;4944952;29;20214;-84
2021/03/29 08:16:08;;;;;;;10.32;3.40;;;11.90;33.70;;;;;;4950157;29;20237;-83
2021/03/29 08:19:08;;;;;;;6.00;2.80;;;12.00;33.80;;;;;;4952215;29;20257;-83
2021/03/29 08:21:53;;;;;;;4.15;2.67;;;12.20;33.60;;;;;;4940857;29;20693;-83
2021/03/29 08:24:21;;;;;;;3.75;2.90;;;12.50;32.00;;;;;;4944969;29;20679;-83
2021/03/29 08:26:49;;;;;;;3.85;2.95;;;12.70;32.00;;;;;;4942821;29;20707;-83
2021/03/29 08:29:17;;;;;;;6.53;3.00;;;12.80;32.10;;;;;;4950164;29;20210;-81
2021/03/29 08:32:08;;;;;;;5.80;3.00;;;13.00;32.20;;;;;;4949641;29;20222;-83
2021/03/29 08:34:37;;;;;;;6.00;3.17;;;13.00;32.20;;;;;;4952936;29;20222;-83
2021/03/29 08:37:06;;;;;;;6.57;2.83;;;13.10;31.70;;;;;;4952639;29;20226;-83
2021/03/29 08:39:33;;;;;;;4.70;2.40;;;13.30;31.50;;;;;;4948711;29;20639;-82
2021/03/29 08:42:01;;;;;;;5.60;2.50;;;13.50;31.00;;;;;;4949118;29;20206;-82
2021/03/29 08:44:28;;;;;;;7.07;3.20;;;13.70;30.60;;;;;;4949270;29;20230;-84
2021/03/29 08:46:55;;;;;;;4.18;2.60;;;13.80;29.70;;;;;;4949463;29;20705;-83
2021/03/29 08:49:23;;;;;;;6.13;2.80;;;13.90;29.40;;;;;;4949709;29;20225;-83
2021/03/29 08:51:51;;;;;;;4.68;2.42;;;14.10;29.00;;;;;;4948954;29;20214;-83
2021/03/29 08:54:18;;;;;;;4.53;2.97;;;14.20;28.80;;;;;;4956067;29;20258;-82
2021/03/29 08:56:48;;;;;;;5.55;2.20;;;14.30;28.70;;;;;;4958291;29;20218;-81
2021/03/29 08:59:14;;;;;;;5.13;2.40;;;14.50;28.30;;;;;;4950865;29;20231;-82
2021/03/29 09:01:41;;;;;;;6.18;2.40;;;14.60;28.20;;;;;;4958361;29;20455;-83
2021/03/29 09:04:10;;;;;;;5.32;2.30;;;14.70;27.90;;;;;;4961024;28;20210;-82
2021/03/29 09:06:38;;;;;;;4.32;2.25;;;14.90;27.30;;;;;;4960633;28;20241;-82
2021/03/29 09:09:12;;;;;;;3.35;2.35;;;15.00;27.00;;;;;;4950643;28;20206;-83
2021/03/29 09:11:40;;;;;;;4.68;2.38;;;15.00;26.90;;;;;;4947726;29;20226;-82
2021/03/29 09:14:07;;;;;;;3.23;2.50;;;15.20;26.80;;;;;;4946198;29;20209;-82
2021/03/29 09:16:33;;;;;;;7.03;2.50;;;15.30;26.40;;;;;;4946981;29;20476;-82
2021/03/29 09:19:14;;;;;;;6.13;2.47;;;15.40;26.30;;;;;;4945816;29;20556;-83
2021/03/29 09:21:42;;;;;;;4.83;2.50;;;15.60;25.70;;;;;;4946389;29;20198;-83
2021/03/29 09:24:16;;;;;;;5.13;2.70;;;15.60;25.80;;;;;;4946676;29;20493;-83
2021/03/29 09:26:43;;;;;;;5.77;4.10;;;15.70;25.80;;;;;;4949049;29;20548;-83
2021/03/29 09:29:32;;;;;;;7.23;3.13;;;15.90;25.90;;;;;;4948570;29;20436;-83
2021/03/29 09:32:00;;;;;;;5.83;2.37;;;16.00;25.10;;;;;;4948669;29;20593;-82
2021/03/29 09:34:27;;;;;;;3.83;2.60;;;16.00;25.10;;;;;;4948755;29;20574;-84
2021/03/29 09:36:55;;;;;;;7.43;2.97;;;16.00;24.80;;;;;;4951772;29;20544;-82
2021/03/29 09:39:22;;;;;;;2.67;1.80;;;16.20;24.50;;;;;;4950236;29;20428;-81
2021/03/29 09:41:51;;;;;;;7.93;2.30;;;16.40;23.60;;;;;;4950654;29;20429;-82
2021/03/29 09:44:24;;;;;;;4.10;2.97;;;16.40;23.00;;;;;;4949662;29;20409;-83
2021/03/29 09:46:54;;;;;;;2.90;2.00;;;16.60;22.80;;;;;;4950944;29;20509;-83
2021/03/29 09:49:20;;;;;;;5.80;2.17;;;16.70;22.90;;;;;;4948161;29;20458;-83
2021/03/29 09:51:49;;;;;;;3.20;2.00;;;16.70;22.20;;;;;;4951243;29;20469;-83
2021/03/29 09:54:28;;;;;;;2.50;1.93;;;16.70;21.80;;;;;;4954200;29;20624;-82
2021/03/29 09:56:56;;;;;;;7.97;2.23;;;16.70;22.20;;;;;;4947127;29;20445;-82
2021/03/29 09:59:30;;;;;;;5.70;2.03;;;16.80;21.60;;;;;;4949269;29;20434;-83
2021/03/29 10:01:58;;;;;;;4.80;2.10;;;16.80;21.30;;;;;;4948733;29;20447;-82
2021/03/29 10:04:25;;;;;;;4.97;2.20;;;17.00;21.20;;;;;;4957454;29;20489;-81
2021/03/29 10:06:54;;;;;;;4.60;2.10;;;17.10;21.40;;;;;;4957924;29;20478;-84
2021/03/29 10:09:32;;;;;;;5.50;2.13;;;17.10;21.40;;;;;;4958622;29;20904;-81
2021/03/29 10:12:00;;;;;;;2.23;1.93;;;17.20;21.30;;;;;;4956565;29;20458;-84
2021/03/29 10:14:35;;;;;;;4.20;1.87;;;17.30;21.30;;;;;;4957343;29;20509;-82
2021/03/29 10:17:02;;;;;;;3.20;1.87;;;17.30;20.30;;;;;;4952106;29;20491;-83
2021/03/29 10:19:34;;;;;;;4.20;2.17;;;17.50;20.50;;;;;;4959237;28;20463;-82
2021/03/29 10:22:08;;;;;;;4.40;2.00;;;17.50;20.50;;;;;;4958863;28;20425;-82
2021/03/29 10:24:36;;;;;;;3.03;1.67;;;17.50;20.80;;;;;;4959399;28;20400;-82
2021/03/29 10:27:05;;;;;;;4.23;1.93;;;17.60;20.80;;;;;;4955544;29;20509;-83
2021/03/29 10:29:36;;;;;;;4.13;1.97;;;17.70;20.50;;;;;;4948535;29;20485;-82
2021/03/29 10:32:09;;;;;;;6.30;1.93;;;17.70;20.50;;;;;;4955396;29;20410;-83
2021/03/29 10:34:38;;;;;;;6.93;2.07;;;17.70;20.10;;;;;;4956720;29;20413;-83
2021/03/29 10:37:06;;;;;;;6.13;2.23;;;17.80;19.90;;;;;;4956354;29;20442;-82
2021/03/29 10:39:32;;;;;;;4.50;1.30;;;17.70;19.00;;;;;;4954376;29;20432;-83
2021/03/29 10:42:00;;;;;;;3.70;1.50;;;17.90;19.20;;;;;;4947023;29;20461;-81
2021/03/29 10:44:26;;;;;;;4.17;1.90;;;17.90;19.20;;;;;;4947655;29;20417;-82
2021/03/29 10:46:58;;;;;;;3.03;2.10;;;17.80;19.30;;;;;;4948242;29;20501;-84
2021/03/29 10:49:24;;;;;;;4.37;2.27;;;17.90;19.30;;;;;;4947433;29;20458;-81
2021/03/29 10:51:51;;;;;;;4.50;1.33;;;17.90;19.20;;;;;;4946868;29;20449;-82
2021/03/29 10:54:17;;;;;;;4.10;1.70;;;18.10;19.30;;;;;;4949298;29;20458;-82
2021/03/29 10:56:44;;;;;;;2.80;1.60;;;18.20;19.40;;;;;;4946688;29;20459;-83
2021/03/29 10:59:12;;;;;;;3.20;1.70;;;18.20;19.40;;;;;;4948401;29;20429;-82
2021/03/29 11:01:38;;;;;;;7.90;1.60;;;18.30;19.40;;;;;;4947896;29;20462;-82
2021/03/29 11:04:05;;;;;;;5.30;1.83;;;18.20;19.40;;;;;;4949400;29;20537;-83
2021/03/29 11:06:31;;;;;;;4.13;1.70;;;18.40;19.50;;;;;;4955846;29;20470;-82
2021/03/29 11:08:58;;;;;;;6.87;1.57;;;18.60;19.60;;;;;;4956750;29;20500;-82
2021/03/29 11:11:24;;;;;;;5.27;1.80;;;18.60;19.10;;;;;;4951792;29;20433;-82
2021/03/29 11:13:51;;;;;;;3.13;1.90;;;18.60;19.30;;;;;;4949428;29;20433;-82
2021/03/29 11:16:20;;;;;;;3.90;1.93;;;18.60;18.60;;;;;;4948622;29;20443;-82
2021/03/29 11:18:46;;;;;;;3.33;1.57;;;18.70;18.50;;;;;;4948225;29;20954;-83
2021/03/29 11:21:13;;;;;;;1.73;1.33;;;18.70;17.90;;;;;;4948027;29;20441;-82
2021/03/29 11:23:39;;;;;;;3.30;1.40;;;18.50;18.10;;;;;;4948941;29;20437;-84
2021/03/29 11:26:06;;;;;;;3.37;1.40;;;18.60;18.20;;;;;;4953083;29;20540;-82
2021/03/29 11:28:32;;;;;;;3.93;1.87;;;18.80;18.10;;;;;;4950779;29;20489;-82
2021/03/29 11:30:59;;;;;;;4.77;1.43;;;18.90;17.70;;;;;;4954152;29;20493;-81
2021/03/29 11:33:26;;;;;;;4.20;1.90;;;19.00;17.90;;;;;;4954175;29;20438;-81
2021/03/29 11:35:53;;;;;;;2.77;1.53;;;19.10;17.60;;;;;;4951160;29;20462;-83
2021/03/29 11:38:19;;;;;;;5.70;2.10;;;19.10;17.10;;;;;;4950143;29;20463;-81
2021/03/29 11:40:46;;;;;;;1.97;1.80;;;19.20;17.20;;;;;;4954818;29;20424;-82
2021/03/29 11:43:13;;;;;;;2.33;1.57;;;19.10;16.40;;;;;;4955843;29;20410;-81
2021/03/29 11:45:40;;;;;;;4.27;2.37;;;19.10;16.20;;;;;;4954377;29;20486;-82
2021/03/29 11:48:08;;;;;;;3.87;1.83;;;19.10;16.10;;;;;;5407824;23;20468;-89
2021/03/29 11:50:38;;;;;;;3.00;1.70;;;19.20;15.90;;;;;;4945028;29;20428;-89
2021/03/29 11:53:06;;;;;;;2.80;1.40;;;19.20;15.90;;;;;;4947478;29;20506;-89
2021/03/29 11:55:34;;;;;;;4.90;1.53;;;19.20;16.10;;;;;;4945633;29;20533;-89
2021/03/29 11:58:06;;;;;;;5.10;1.97;;;19.30;15.80;;;;;;4949463;29;20441;-89
2021/03/29 12:00:37;;;;;;;2.40;1.43;;;19.40;15.00;;;;;;4948143;29;20450;-88
2021/03/29 12:03:13;;;;;;;1.60;1.27;;;19.50;15.00;;;;;;4955319;28;20455;-88
2021/03/29 12:05:47;;;;;;;2.90;1.47;;;19.60;14.60;;;;;;4959092;28;20466;-89
2021/03/29 12:08:24;;;;;;;2.00;1.37;;;19.60;14.90;;;;;;4959393;28;20460;-89
2021/03/29 12:13:26;;;;;;;2.97;1.73;;;19.90;15.50;;;;;;5747377;23;20552;-90
2021/03/29 12:15:56;;;;;;;2.80;1.73;;;19.90;14.20;;;;;;4955799;28;20404;-90
2021/03/29 12:18:33;;;;;;;3.87;1.60;;;19.80;13.70;;;;;;4951419;28;20452;-88
2021/03/29 12:21:02;;;;;;;5.60;2.07;;;19.80;13.80;;;;;;4959310;28;20446;-89
2021/03/29 12:23:31;;;;;;;3.60;1.90;;;20.00;14.30;;;;;;4958548;28;20469;-89
2021/03/29 12:26:03;;;;;;;4.53;1.93;;;20.10;12.30;;;;;;4959090;28;20502;-90
2021/03/29 12:28:31;;;;;;;9.03;2.23;;;20.10;13.40;;;;;;4974149;23;20496;-81
2021/03/29 12:30:59;;;;;;;6.73;2.17;;;20.10;13.40;;;;;;4948894;29;20612;-81
2021/03/29 12:33:27;;;;;;;3.97;1.93;;;20.00;13.70;;;;;;4950061;29;20458;-84
2021/03/29 12:35:55;;;;;;;5.90;1.77;;;20.10;13.50;;;;;;4956435;28;20424;-83
2021/03/29 12:38:24;;;;;;;4.23;2.00;;;20.20;12.30;;;;;;4953460;29;20453;-82
2021/03/29 12:40:52;;;;;;;4.70;1.90;;;20.30;12.70;;;;;;4952392;29;20451;-81
2021/03/29 12:43:32;;;;;;;4.47;2.20;;;20.20;12.30;;;;;;4954582;28;20747;-82
2021/03/29 12:46:02;;;;;;;4.50;1.80;;;20.40;12.50;;;;;;4953186;29;20504;-82
2021/03/29 12:48:28;;;;;;;3.57;1.50;;;20.40;12.50;;;;;;4949322;29;20475;-82
2021/03/29 12:50:55;;;;;;;3.37;2.00;;;20.50;11.90;;;;;;4948549;29;20804;-83
2021/03/29 12:53:25;;;;;;;4.50;2.60;;;20.50;12.50;;;;;;4950351;29;20456;-82
2021/03/29 12:55:51;;;;;;;3.10;2.17;;;20.70;11.50;;;;;;4947453;29;20458;-82
2021/03/29 12:58:18;;;;;;;4.10;1.80;;;20.70;11.00;;;;;;4948433;29;20545;-83
2021/03/29 13:00:47;;;;;;;4.97;1.87;;;20.60;11.30;;;;;;4947694;29;20443;-82
2021/03/29 13:03:28;;;;;;;2.80;1.70;;;20.60;11.40;;;;;;4951257;29;20454;-81
2021/03/29 13:05:58;;;;;;;3.83;2.10;;;20.80;12.70;;;;;;4953055;29;20462;-81
2021/03/29 13:08:27;;;;;;;3.10;1.50;;;20.80;12.70;;;;;;4951662;29;20460;-81
2021/03/29 13:11:18;;;;;;;3.60;2.10;;;20.70;12.10;;;;;;4953101;29;20494;-82
2021/03/29 13:13:45;;;;;;;2.43;1.50;;;20.60;12.40;;;;;;4955581;29;20389;-84
2021/03/29 13:16:12;;;;;;;6.00;2.20;;;20.70;11.60;;;;;;4957971;29;20444;-82
2021/03/29 13:18:39;;;;;;;6.83;2.17;;;20.70;12.70;;;;;;4957262;29;20457;-84
2021/03/29 13:21:05;;;;;;;5.87;2.17;;;20.60;11.90;;;;;;4956445;29;20447;-81
2021/03/29 13:23:33;;;;;;;4.47;2.37;;;20.50;12.50;;;;;;4956175;29;20433;-81
2021/03/29 13:26:00;;;;;;;5.00;2.00;;;20.70;11.10;;;;;;4957762;29;20489;-81
2021/03/29 13:28:27;;;;;;;2.03;1.80;;;20.80;10.60;;;;;;4957355;29;20529;-81
2021/03/29 13:30:53;;;;;;;6.70;2.03;;;20.80;10.50;;;;;;4956438;29;20433;-81
2021/03/29 13:33:20;;;;;;;5.03;2.07;;;20.90;10.10;;;;;;4954630;29;20465;-80
2021/03/29 13:35:46;;;;;;;7.77;2.10;;;21.00;10.30;;;;;;4953750;29;20457;-80
2021/03/29 13:38:14;;;;;;;4.03;2.00;;;21.20;9.90;;;;;;4953396;29;20441;-80
2021/03/29 13:40:56;;;;;;;11.47;2.10;;;21.20;11.00;;;;;;4957074;28;20413;-80
2021/03/29 13:43:22;;;;;;;5.93;2.10;;;21.20;9.90;;;;;;4952491;29;20521;-81
2021/03/29 13:45:49;;;;;;;5.70;2.23;;;21.10;10.20;;;;;;4951790;29;20494;-81
2021/03/29 13:48:15;;;;;;;4.80;1.97;;;21.10;10.20;;;;;;4951181;29;20483;-82
2021/03/29 13:50:43;;;;;;;6.90;1.97;;;21.00;10.30;;;;;;4951902;29;20427;-82
2021/03/29 13:53:12;;;;;;;7.13;1.90;;;21.10;10.60;;;;;;4951622;29;20437;-83
2021/03/29 13:55:38;;;;;;;4.23;2.40;;;21.10;10.40;;;;;;4952973;29;20437;-81
2021/03/29 13:58:06;;;;;;;3.67;1.83;;;21.20;10.60;;;;;;4947998;29;20497;-82
2021/03/29 14:00:32;;;;;;;4.13;2.30;;;21.20;10.40;;;;;;4947440;29;20524;-81
2021/03/29 14:03:00;;;;;;;7.93;2.37;;;21.10;10.40;;;;;;4950710;29;20469;-82
2021/03/29 14:05:29;;;;;;;2.60;1.77;;;21.30;10.30;;;;;;4950971;29;20853;-81
2021/03/29 14:07:56;;;;;;;7.37;2.40;;;21.20;9.70;;;;;;4956475;28;20493;-82
2021/03/29 14:10:22;;;;;;;3.17;2.00;;;21.20;10.00;;;;;;4954127;29;20432;-83
2021/03/29 14:12:49;;;;;;;5.57;2.10;;;21.20;10.10;;;;;;4953635;29;20459;-80
2021/03/29 14:15:16;;;;;;;2.50;1.73;;;21.30;10.30;;;;;;4951430;29;20491;-80
2021/03/29 14:17:43;;;;;;;3.17;1.70;;;21.20;10.20;;;;;;4949949;29;20458;-81
2021/03/29 14:20:11;;;;;;;6.40;1.67;;;21.20;9.40;;;;;;4947918;29;20478;-82
2021/03/29 14:22:38;;;;;;;4.30;1.70;;;21.20;9.90;;;;;;4947986;29;20432;-82
2021/03/29 14:25:07;;;;;;;3.57;1.93;;;21.10;10.30;;;;;;4946869;29;20464;-79
2021/03/29 14:27:34;;;;;;;2.20;1.90;;;21.30;10.40;;;;;;4949579;29;20481;-80
2021/03/29 14:30:00;;;;;;;4.17;2.20;;;21.40;10.30;;;;;;4948041;29;20779;-82
2021/03/29 14:32:27;;;;;;;2.20;1.90;;;21.40;10.00;;;;;;4946936;29;20461;-82
2021/03/29 14:35:00;;;;;;;3.53;1.60;;;21.50;10.00;;;;;;4946383;29;20535;-81
2021/03/29 14:37:50;;;;;;;3.77;1.70;;;21.60;10.30;;;;;;4949853;29;20475;-82
2021/03/29 14:40:22;;;;;;;3.23;2.13;;;21.70;9.70;;;;;;4951956;29;20459;-80
2021/03/29 14:42:52;;;;;;;3.53;1.90;;;21.70;9.50;;;;;;4948734;29;20413;-82
2021/03/29 14:45:18;;;;;;;3.70;1.60;;;21.50;9.80;;;;;;4946105;29;20436;-81